Time;durP1;ratioP1;P1;durP2;ratioP2;P2;SDS_P1;SDS_P2;PMS_P1;PMS_P2;Temp;Humidity;BMP_temperature;BMP_pressure;BME280_temperature;BME280_humidity;BME280_pressure;Samples;Min_cycle;Max_cycle;Signal;HPM_P1;HPM_P2
2021/07/11 00:01:45;;;;;;;1.63;1.05;;;;;;;15.06;98.70;96872.19;4983827;28;20109;-66
2021/07/11 00:04:10;;;;;;;2.78;0.93;;;;;;;15.14;97.57;96872.19;4976642;28;20034;-65
2021/07/11 00:06:37;;;;;;;1.77;0.93;;;;;;;15.15;97.30;96865.50;4987912;28;20558;-65
2021/07/11 00:09:05;;;;;;;2.83;0.85;;;;;;;15.18;98.20;96876.53;4978719;28;20090;-64
2021/07/11 00:11:30;;;;;;;2.30;0.88;;;;;;;15.21;99.03;96874.97;4980958;28;20039;-65
2021/07/11 00:14:00;;;;;;;1.67;0.95;;;;;;;15.36;96.25;96882.06;4975349;28;20046;-65
2021/07/11 00:16:25;;;;;;;3.83;1.15;;;;;;;15.32;96.63;96869.44;4973697;28;20046;-65
2021/07/11 00:18:51;;;;;;;5.03;1.05;;;;;;;15.11;95.74;96876.53;4983751;28;20044;-64
2021/07/11 00:21:16;;;;;;;2.40;0.80;;;;;;;15.04;97.14;96871.00;4978577;28;20049;-64
2021/07/11 00:23:42;;;;;;;1.83;0.90;;;;;;;15.17;99.58;96868.66;4983701;28;20045;-64
2021/07/11 00:26:07;;;;;;;7.32;1.05;;;;;;;15.16;100.00;96858.78;4978262;28;20053;-64
2021/07/11 00:28:32;;;;;;;3.60;1.30;;;;;;;14.65;100.00;96855.94;4981870;28;20153;-64
2021/07/11 00:30:58;;;;;;;5.85;1.15;;;;;;;14.57;100.00;96859.84;4981889;28;20061;-63
2021/07/11 00:33:23;;;;;;;8.63;1.45;;;;;;;14.36;100.00;96857.00;4976000;28;20123;-64
2021/07/11 00:35:48;;;;;;;5.80;1.20;;;;;;;14.20;100.00;96860.09;4983789;28;20050;-64
2021/07/11 00:38:14;;;;;;;14.43;1.63;;;;;;;14.17;100.00;96855.34;4976555;28;20049;-64
2021/07/11 00:40:39;;;;;;;22.13;2.55;;;;;;;14.40;100.00;96864.09;4980310;28;20053;-63
2021/07/11 00:43:05;;;;;;;6.80;1.50;;;;;;;14.65;100.00;96861.44;4977923;28;20225;-63
2021/07/11 00:45:30;;;;;;;5.03;1.52;;;;;;;14.42;100.00;96860.94;4982972;28;20061;-64
2021/07/11 00:47:56;;;;;;;2.95;1.60;;;;;;;14.27;100.00;96868.38;4980289;28;20043;-64
2021/07/11 00:50:21;;;;;;;6.70;1.65;;;;;;;14.19;100.00;96877.78;4974789;28;21303;-63
2021/07/11 00:52:46;;;;;;;6.07;2.70;;;;;;;14.10;100.00;96869.88;4983135;28;20046;-64
2021/07/11 00:55:13;;;;;;;4.35;1.27;;;;;;;14.19;100.00;96877.78;4977624;28;20569;-64
2021/07/11 00:57:38;;;;;;;5.63;1.50;;;;;;;14.24;100.00;96866.38;4983527;28;20065;-64
2021/07/11 01:00:09;;;;;;;6.38;1.88;;;;;;;14.10;100.00;96878.16;4976020;28;20486;-62
2021/07/11 01:02:50;;;;;;;4.43;1.83;;;;;;;13.97;100.00;96874.91;4981661;28;20054;-64
2021/07/11 01:05:16;;;;;;;2.00;1.20;;;;;;;13.93;100.00;96872.13;4976410;28;20479;-65
2021/07/11 01:07:53;;;;;;;3.75;1.52;;;;;;;14.01;100.00;96867.47;4981524;28;20046;-64
2021/07/11 01:10:30;;;;;;;5.80;1.30;;;;;;;13.85;100.00;96867.78;4976898;28;20042;-64
2021/07/11 01:12:57;;;;;;;13.07;3.28;;;;;;;13.87;100.00;96867.38;4976971;28;20399;-65
2021/07/11 01:15:24;;;;;;;4.32;1.40;;;;;;;13.90;100.00;96870.16;4977482;28;20055;-64
2021/07/11 01:18:01;;;;;;;3.15;1.30;;;;;;;13.89;100.00;96868.56;4983231;28;20519;-64
2021/07/11 01:20:36;;;;;;;2.85;1.20;;;;;;;14.02;100.00;96865.50;4971705;28;20105;-64
2021/07/11 01:23:06;;;;;;;1.77;1.00;;;;;;;14.20;100.00;96880.16;4964292;28;20041;-62
2021/07/11 01:25:33;;;;;;;3.80;1.33;;;;;;;14.23;100.00;96875.84;4982725;28;20045;-65
2021/07/11 01:28:08;;;;;;;4.05;1.70;;;;;;;14.25;100.00;96877.03;4981788;28;20057;-64
2021/07/11 01:30:35;;;;;;;1.85;1.05;;;;;;;14.41;100.00;96882.22;4980814;28;20049;-64
2021/07/11 01:33:02;;;;;;;2.40;1.25;;;;;;;14.29;100.00;96875.06;4982628;28;20141;-64
2021/07/11 01:35:29;;;;;;;2.63;1.17;;;;;;;14.20;100.00;96882.91;4961754;28;20066;-64
2021/07/11 01:37:56;;;;;;;6.30;1.50;;;;;;;14.06;100.00;96883.63;4982985;28;20434;-64
2021/07/11 01:40:22;;;;;;;1.23;0.90;;;;;;;14.14;100.00;96882.47;4976030;28;20127;-64
2021/07/11 01:42:50;;;;;;;2.10;1.20;;;;;;;14.38;100.00;96879.44;4980959;28;20096;-64
2021/07/11 01:45:15;;;;;;;5.60;1.25;;;;;;;14.68;100.00;96879.19;4974811;28;20047;-64
2021/07/11 01:47:42;;;;;;;4.45;1.10;;;;;;;14.68;100.00;96877.22;4987424;28;20068;-63
2021/07/11 01:50:11;;;;;;;2.08;1.15;;;;;;;14.60;100.00;96880.34;4977477;28;20043;-63
2021/07/11 01:52:36;;;;;;;2.03;1.27;;;;;;;14.69;100.00;96876.06;4975474;28;20054;-64
2021/07/11 01:55:04;;;;;;;1.92;1.20;;;;;;;14.78;100.00;96872.13;4983654;28;20050;-64
2021/07/11 01:57:29;;;;;;;1.08;0.80;;;;;;;14.84;100.00;96874.13;4962869;28;20403;-64
2021/07/11 01:59:54;;;;;;;2.72;1.20;;;;;;;14.79;100.00;96868.19;4982533;28;20076;-64
2021/07/11 02:02:20;;;;;;;1.40;0.82;;;;;;;14.97;100.00;96865.47;4973246;28;20039;-63
2021/07/11 02:04:46;;;;;;;1.55;0.98;;;;;;;14.92;100.00;96863.88;4976448;28;20435;-64
2021/07/11 02:07:11;;;;;;;1.63;1.00;;;;;;;14.82;100.00;96867.41;4971366;28;20034;-64
2021/07/11 02:09:36;;;;;;;3.53;0.90;;;;;;;14.82;100.00;96862.69;4974895;28;20561;-64
2021/07/11 02:12:05;;;;;;;1.23;0.80;;;;;;;14.83;100.00;96866.22;4976534;28;20121;-63
2021/07/11 02:14:35;;;;;;;3.33;1.42;;;;;;;15.09;100.00;96873.38;4980955;28;20042;-64
2021/07/11 02:17:13;;;;;;;2.13;0.80;;;;;;;15.18;100.00;96873.78;4977822;28;20392;-64
2021/07/11 02:19:40;;;;;;;4.78;1.35;;;;;;;15.31;100.00;96873.41;4945345;28;20037;-63
2021/07/11 02:22:07;;;;;;;2.60;0.95;;;;;;;15.28;100.00;96869.44;4957323;28;20046;-63
2021/07/11 02:24:42;;;;;;;1.67;1.20;;;;;;;15.30;100.00;96867.06;4969026;28;21358;-64
2021/07/11 02:27:09;;;;;;;2.85;1.20;;;;;;;15.12;100.00;96863.53;4974754;28;20085;-64
2021/07/11 02:29:39;;;;;;;5.85;1.38;;;;;;;15.04;100.00;96865.50;4972537;28;20129;-64
2021/07/11 02:32:08;;;;;;;4.10;1.30;;;;;;;15.00;100.00;96862.72;4976605;28;20419;-63
2021/07/11 02:34:35;;;;;;;4.28;1.17;;;;;;;15.00;100.00;96864.69;4976178;28;20117;-64
2021/07/11 02:37:02;;;;;;;11.35;2.00;;;;;;;15.00;100.00;96864.69;4976256;28;20034;-64
2021/07/11 02:39:28;;;;;;;1.73;1.10;;;;;;;14.88;100.00;96861.13;4955887;28;20184;-64
2021/07/11 02:42:00;;;;;;;2.17;1.40;;;;;;;14.90;100.00;96860.72;4980140;28;20086;-64
2021/07/11 02:44:26;;;;;;;2.17;1.23;;;;;;;14.80;100.00;96856.78;4975752;28;20046;-65
2021/07/11 02:47:14;;;;;;;5.93;2.08;;;;;;;14.66;100.00;96865.81;4970547;28;20046;-65
2021/07/11 02:49:45;;;;;;;15.38;1.80;;;;;;;14.20;100.00;96860.09;4960788;28;20043;-65
2021/07/11 02:52:11;;;;;;;4.75;1.83;;;;;;;14.11;100.00;96860.44;4956551;28;20043;-64
2021/07/11 02:54:41;;;;;;;7.82;1.70;;;;;;;13.92;100.00;96856.78;4968726;28;20053;-64
2021/07/11 02:57:08;;;;;;;9.15;1.70;;;;;;;13.83;100.00;96855.53;4971560;28;20038;-63
2021/07/11 02:59:35;;;;;;;5.40;1.95;;;;;;;13.68;100.00;96855.44;4971924;28;20053;-63
2021/07/11 03:02:05;;;;;;;7.97;2.05;;;;;;;13.63;100.00;96855.84;4983547;28;20189;-64
2021/07/11 03:04:33;;;;;;;2.63;1.83;;;;;;;13.62;100.00;96851.50;4978669;28;20271;-64
2021/07/11 03:07:00;;;;;;;4.10;2.05;;;;;;;13.73;100.00;96854.31;4975964;28;20042;-65
2021/07/11 03:09:25;;;;;;;5.65;1.80;;;;;;;13.90;100.00;96855.59;4972215;28;20046;-63
2021/07/11 03:11:51;;;;;;;2.55;1.55;;;;;;;13.94;100.00;96848.94;4974966;28;20141;-63
2021/07/11 03:14:19;;;;;;;4.85;1.35;;;;;;;13.89;100.00;96846.53;4974789;28;21011;-63
2021/07/11 03:16:51;;;;;;;4.95;1.42;;;;;;;14.03;100.00;96847.81;4972361;28;20039;-64
2021/07/11 03:19:19;;;;;;;2.42;1.40;;;;;;;14.15;100.00;96850.22;4973503;28;20155;-64
2021/07/11 03:21:46;;;;;;;6.65;2.10;;;;;;;14.14;100.00;96846.66;4979542;28;20125;-63
2021/07/11 03:24:12;;;;;;;2.33;1.45;;;;;;;14.14;100.00;96848.66;4970213;28;20038;-65
2021/07/11 03:26:40;;;;;;;5.60;1.85;;;;;;;14.19;100.00;96859.31;4980629;28;20061;-65
2021/07/11 03:29:14;;;;;;;2.75;1.30;;;;;;;14.36;100.00;96852.28;4979535;28;20039;-65
2021/07/11 03:31:40;;;;;;;3.55;1.45;;;;;;;14.48;100.00;96859.41;4981802;28;20081;-66
2021/07/11 03:34:06;;;;;;;2.53;1.10;;;;;;;14.58;100.00;96860.66;4973017;28;20073;-65
2021/07/11 03:36:32;;;;;;;3.40;0.98;;;;;;;14.63;100.00;96860.28;4971642;28;20062;-66
2021/07/11 03:39:01;;;;;;;2.85;1.40;;;;;;;14.66;100.00;96857.53;4979186;28;20050;-64
2021/07/11 03:41:30;;;;;;;2.70;1.20;;;;;;;14.55;100.00;96862.19;4974898;28;20045;-64
2021/07/11 03:43:58;;;;;;;2.20;1.10;;;;;;;14.60;100.00;96859.06;4980436;28;20077;-63
2021/07/11 03:46:29;;;;;;;2.55;1.05;;;;;;;14.70;100.00;96858.31;4973937;28;20289;-64
2021/07/11 03:49:01;;;;;;;6.43;1.17;;;;;;;14.63;100.00;96850.03;4977887;28;20054;-64
2021/07/11 03:51:30;;;;;;;6.03;1.58;;;;;;;14.69;100.00;96853.19;4967059;28;20499;-62
2021/07/11 03:53:58;;;;;;;3.38;1.20;;;;;;;14.75;100.00;96856.34;4983564;28;20042;-62
2021/07/11 03:56:28;;;;;;;5.22;1.40;;;;;;;14.48;100.00;96851.16;4976860;28;20112;-63
2021/07/11 03:58:56;;;;;;;3.78;1.35;;;;;;;14.01;100.00;96850.13;4971031;28;20050;-63
2021/07/11 04:01:24;;;;;;;2.70;1.40;;;;;;;13.87;100.00;96856.38;4976063;28;20132;-63
2021/07/11 04:03:51;;;;;;;4.03;1.50;;;;;;;13.88;100.00;96858.75;4977862;28;20137;-62
2021/07/11 04:06:19;;;;;;;5.22;1.48;;;;;;;13.71;100.00;96857.44;4976287;28;20089;-62
2021/07/11 04:08:45;;;;;;;4.70;1.52;;;;;;;13.77;100.00;96858.69;4983395;28;20484;-62
2021/07/11 04:11:12;;;;;;;4.68;1.48;;;;;;;13.86;100.00;96855.56;4970537;28;20081;-62
2021/07/11 04:13:38;;;;;;;9.88;1.50;;;;;;;13.75;100.00;96851.97;4965994;28;20042;-62
2021/07/11 04:16:06;;;;;;;2.03;1.40;;;;;;;13.81;100.00;96861.47;4979614;28;20065;-65
2021/07/11 04:18:42;;;;;;;2.90;1.55;;;;;;;13.89;100.00;96851.28;4983849;28;20046;-64
2021/07/11 04:21:09;;;;;;;3.70;1.38;;;;;;;13.86;100.00;96854.78;4977493;28;20042;-64
2021/07/11 04:23:34;;;;;;;4.00;1.70;;;;;;;13.80;100.00;96854.34;4984086;28;20038;-62
2021/07/11 04:26:01;;;;;;;2.35;1.30;;;;;;;13.79;100.00;96855.53;4981504;28;20197;-63
2021/07/11 04:28:32;;;;;;;7.63;1.70;;;;;;;13.82;100.00;96849.25;4975795;28;20047;-61
2021/07/11 04:31:02;;;;;;;3.47;1.55;;;;;;;13.91;100.00;96852.44;4976576;28;20396;-61
2021/07/11 04:33:29;;;;;;;2.17;1.50;;;;;;;13.80;100.00;96846.09;4980270;28;20086;-61
2021/07/11 04:35:54;;;;;;;5.57;1.85;;;;;;;13.85;100.00;96847.72;4983684;28;20124;-63
2021/07/11 04:38:20;;;;;;;6.97;2.20;;;;;;;13.99;100.00;96853.31;4968086;28;20783;-63
2021/07/11 04:40:46;;;;;;;2.80;1.42;;;;;;;14.03;100.00;96856.84;4983548;28;20132;-62
2021/07/11 04:43:15;;;;;;;2.70;1.80;;;;;;;14.13;100.00;96860.81;4968564;28;20558;-62
2021/07/11 04:45:40;;;;;;;2.22;1.35;;;;;;;14.31;100.00;96856.22;4969443;28;20050;-62
2021/07/11 04:48:06;;;;;;;4.07;2.03;;;;;;;14.53;100.00;96857.06;4978836;28;20046;-62
2021/07/11 04:50:31;;;;;;;2.63;1.52;;;;;;;14.77;100.00;96862.28;4983671;28;20054;-63
2021/07/11 04:52:57;;;;;;;4.50;1.30;;;;;;;14.96;100.00;96863.88;4972537;28;20057;-63
2021/07/11 04:55:22;;;;;;;3.72;1.08;;;;;;;15.19;100.00;96866.28;4977720;28;20046;-63
2021/07/11 04:57:47;;;;;;;1.88;1.27;;;;;;;15.36;100.00;96856.44;4982404;28;20038;-62
2021/07/11 05:00:14;;;;;;;3.28;1.60;;;;;;;15.41;100.00;96864.31;4976991;28;20050;-63
2021/07/11 05:02:39;;;;;;;3.45;1.25;;;;;;;15.15;100.00;96858.00;4983175;28;20097;-63
2021/07/11 05:05:06;;;;;;;5.78;1.63;;;;;;;14.96;100.00;96864.66;4976185;28;20051;-63
2021/07/11 05:07:32;;;;;;;3.47;1.42;;;;;;;14.87;100.00;96867.84;4974828;28;20065;-62
2021/07/11 05:09:58;;;;;;;1.92;1.00;;;;;;;14.95;100.00;96860.34;4985142;28;20042;-63
2021/07/11 05:12:24;;;;;;;3.90;1.45;;;;;;;14.97;100.00;96863.50;4983126;28;20117;-62
2021/07/11 05:14:49;;;;;;;2.90;1.50;;;;;;;14.93;100.00;96867.41;4976648;28;20162;-62
2021/07/11 05:17:15;;;;;;;3.45;1.20;;;;;;;14.98;100.00;96869.78;4976911;28;20046;-62
2021/07/11 05:19:42;;;;;;;1.95;1.00;;;;;;;15.18;100.00;96864.69;4982950;28;20042;-62
2021/07/11 05:22:08;;;;;;;2.42;1.45;;;;;;;15.33;100.00;96871.03;4977696;28;20066;-60
2021/07/11 05:24:34;;;;;;;4.30;1.40;;;;;;;15.51;100.00;96874.56;4982688;28;20101;-62
2021/07/11 05:26:59;;;;;;;3.63;1.45;;;;;;;15.76;100.00;96874.59;4982714;28;20078;-62
2021/07/11 05:29:24;;;;;;;4.97;1.40;;;;;;;15.89;100.00;96865.88;4960100;28;20058;-63
2021/07/11 05:31:50;;;;;;;3.13;1.10;;;;;;;15.91;99.58;96869.03;4982318;28;20407;-62
2021/07/11 05:34:15;;;;;;;5.28;1.23;;;;;;;15.96;97.62;96868.63;4977983;28;20042;-62
2021/07/11 05:36:41;;;;;;;2.55;1.23;;;;;;;15.93;99.39;96867.44;4982682;28;20046;-62
2021/07/11 05:39:06;;;;;;;1.90;1.10;;;;;;;15.99;98.94;96859.53;4969172;28;20431;-63
2021/07/11 05:41:32;;;;;;;3.35;1.20;;;;;;;16.23;97.55;96863.44;4982311;28;20423;-62
2021/07/11 05:43:59;;;;;;;2.20;0.90;;;;;;;16.41;95.92;96857.84;4981089;28;20372;-62
2021/07/11 05:46:25;;;;;;;2.67;1.00;;;;;;;16.60;94.55;96856.56;4974534;28;20054;-61
2021/07/11 05:48:51;;;;;;;4.22;1.10;;;;;;;16.77;92.80;96854.91;4973404;28;20050;-62
2021/07/11 05:51:16;;;;;;;2.83;1.15;;;;;;;16.82;92.44;96862.78;4975965;28;20042;-65
2021/07/11 05:53:42;;;;;;;2.80;0.95;;;;;;;16.99;91.65;96852.81;4974783;28;20046;-60
2021/07/11 05:56:07;;;;;;;1.20;0.80;;;;;;;17.42;86.84;96862.78;4977563;28;20746;-60
2021/07/11 05:58:33;;;;;;;1.77;0.90;;;;;;;17.75;85.15;96859.34;4977915;28;20043;-62
2021/07/11 06:00:58;;;;;;;2.33;0.80;;;;;;;18.42;85.56;96866.56;4978122;28;20047;-62
2021/07/11 06:03:24;;;;;;;2.30;0.70;;;;;;;19.43;80.12;96857.66;4958085;28;20052;-63
2021/07/11 06:05:49;;;;;;;1.67;0.70;;;;;;;19.81;75.46;96857.44;4956499;28;20045;-62
2021/07/11 06:08:15;;;;;;;1.27;0.63;;;;;;;20.56;73.65;96852.44;4966960;28;20053;-62
2021/07/11 06:10:40;;;;;;;2.13;0.77;;;;;;;21.18;69.26;96859.06;4978901;28;20100;-63
2021/07/11 06:13:05;;;;;;;1.40;0.63;;;;;;;21.96;65.96;96860.34;4974860;28;20045;-64
2021/07/11 06:15:31;;;;;;;1.63;0.70;;;;;;;22.79;63.24;96860.88;4964845;28;20412;-63
2021/07/11 06:17:57;;;;;;;0.82;0.50;;;;;;;23.71;57.75;96856.41;4978022;28;20049;-63
2021/07/11 06:20:23;;;;;;;4.80;1.10;;;;;;;24.11;56.22;96857.91;4973846;28;20459;-63
2021/07/11 06:22:49;;;;;;;1.75;0.82;;;;;;;23.59;58.22;96857.25;4980002;28;20399;-63
2021/07/11 06:25:14;;;;;;;0.93;0.50;;;;;;;22.90;59.50;96861.34;4967546;28;20054;-62
2021/07/11 06:27:42;;;;;;;1.50;0.60;;;;;;;22.22;61.47;96858.47;4981481;28;20053;-62
2021/07/11 06:30:10;;;;;;;0.60;0.40;;;;;;;22.25;62.14;96859.59;4976173;28;20101;-62
2021/07/11 06:32:40;;;;;;;4.07;0.50;;;;;;;21.64;62.47;96863.97;4971781;28;20049;-62
2021/07/11 06:35:06;;;;;;;;;;;;;;;20.87;68.41;96872.50;4955480;28;20049;-62
2021/07/11 06:37:33;;;;;;;2.03;0.70;;;;;;;20.90;66.46;96870.84;4970368;28;19933;-62
2021/07/11 06:39:58;;;;;;;1.10;0.60;;;;;;;21.01;67.51;96854.66;4960269;28;20050;-61
2021/07/11 06:42:23;;;;;;;1.48;0.65;;;;;;;21.10;64.76;96871.56;4966488;28;20515;-64
2021/07/11 06:44:49;;;;;;;1.73;0.82;;;;;;;21.15;64.50;96873.84;4972209;28;20042;-61
2021/07/11 06:47:14;;;;;;;1.33;0.73;;;;;;;21.03;65.82;96863.38;4972213;28;20049;-61
2021/07/11 06:49:40;;;;;;;1.05;0.60;;;;;;;20.92;62.84;96860.84;4974989;28;20490;-63
2021/07/11 06:52:06;;;;;;;2.05;0.80;;;;;;;20.78;65.53;96864.72;4967125;28;20054;-62
2021/07/11 06:54:31;;;;;;;1.80;0.80;;;;;;;21.22;65.90;96864.53;4978938;28;20052;-62
2021/07/11 06:56:57;;;;;;;1.60;0.80;;;;;;;21.83;60.85;96862.31;4980140;28;20533;-63
2021/07/11 06:59:22;;;;;;;1.45;0.82;;;;;;;21.25;62.70;96855.31;4963749;28;21013;-62
2021/07/11 07:01:48;;;;;;;3.88;0.75;;;;;;;20.78;64.24;96859.16;4977633;28;20434;-61
2021/07/11 07:04:13;;;;;;;1.48;0.80;;;;;;;21.16;64.38;96853.13;4975105;28;20511;-62
2021/07/11 07:06:39;;;;;;;4.60;0.93;;;;;;;21.26;62.13;96859.66;4962759;28;20042;-61
2021/07/11 07:09:04;;;;;;;3.58;0.98;;;;;;;21.15;62.95;96864.69;4967845;28;20495;-63
2021/07/11 07:11:30;;;;;;;2.20;0.98;;;;;;;21.53;61.78;96859.44;4963383;28;20043;-63
2021/07/11 07:13:55;;;;;;;1.98;1.00;;;;;;;21.36;61.98;96861.41;4980503;28;20141;-61
2021/07/11 07:16:21;;;;;;;1.88;0.85;;;;;;;20.96;63.61;96857.97;4969486;28;21133;-60
2021/07/11 07:18:46;;;;;;;2.78;1.50;;;;;;;21.07;64.07;96863.28;4970933;28;20050;-61
2021/07/11 07:21:12;;;;;;;3.03;0.90;;;;;;;21.78;60.27;96860.81;4972650;28;20093;-61
2021/07/11 07:23:37;;;;;;;2.67;1.00;;;;;;;21.77;60.95;96854.47;4971285;28;20125;-61
2021/07/11 07:26:03;;;;;;;1.88;0.95;;;;;;;22.58;59.26;96856.69;4975837;28;20046;-62
2021/07/11 07:28:28;;;;;;;3.22;1.17;;;;;;;24.21;53.29;96857.53;4956011;28;20050;-61
2021/07/11 07:30:54;;;;;;;1.95;1.10;;;;;;;25.16;50.92;96853.63;4983438;28;20117;-63
2021/07/11 07:33:19;;;;;;;1.98;0.90;;;;;;;25.40;48.54;96847.50;4976836;28;20069;-61
2021/07/11 07:35:45;;;;;;;1.77;0.98;;;;;;;25.03;50.01;96852.16;4984351;28;20169;-61
2021/07/11 07:38:10;;;;;;;3.63;1.30;;;;;;;24.84;49.88;96856.91;4971164;28;20530;-61
2021/07/11 07:40:36;;;;;;;3.20;0.90;;;;;;;25.74;46.78;96852.09;4984900;28;20073;-61
2021/07/11 07:43:01;;;;;;;2.00;0.98;;;;;;;24.81;48.35;96852.97;4987453;28;20562;-62
2021/07/11 07:45:27;;;;;;;3.10;1.00;;;;;;;26.10;45.23;96844.22;4978333;28;20077;-62
2021/07/11 07:47:53;;;;;;;2.65;0.93;;;;;;;23.83;49.37;96843.66;4982138;28;20746;-62
2021/07/11 07:50:18;;;;;;;5.05;1.02;;;;;;;23.99;50.47;96851.91;4971132;28;20050;-60
2021/07/11 07:52:44;;;;;;;1.83;0.98;;;;;;;24.84;49.40;96854.09;4984300;28;20034;-62
2021/07/11 07:55:10;;;;;;;4.05;1.00;;;;;;;25.08;47.90;96840.34;4969173;28;20050;-62
2021/07/11 07:57:37;;;;;;;1.85;0.90;;;;;;;26.45;44.45;96841.09;4983778;28;20045;-62
2021/07/11 08:00:06;;;;;;;2.58;1.23;;;;;;;26.12;46.19;96839.69;4972530;28;20057;-63
2021/07/11 08:02:31;;;;;;;2.80;0.70;;;;;;;26.12;44.83;96836.13;4976564;28;20495;-62
2021/07/11 08:04:57;;;;;;;2.40;0.90;;;;;;;24.27;47.92;96849.31;4989967;28;20046;-62
2021/07/11 08:07:26;;;;;;;1.67;0.70;;;;;;;24.97;48.54;96852.78;4979936;28;20061;-60
2021/07/11 08:09:52;;;;;;;2.25;1.13;;;;;;;24.98;48.46;96845.13;4957597;28;20172;-59
2021/07/11 08:12:18;;;;;;;6.57;1.77;;;;;;;24.54;48.92;96836.78;4978774;28;20066;-61
2021/07/11 08:14:44;;;;;;;5.30;2.03;;;;;;;24.62;49.30;96838.09;4981312;28;20500;-61
2021/07/11 08:17:09;;;;;;;1.63;1.02;;;;;;;24.59;46.47;96839.78;4976981;28;20129;-61
2021/07/11 08:19:34;;;;;;;4.85;1.05;;;;;;;24.29;46.65;96840.47;4983867;28;20415;-60
2021/07/11 08:22:00;;;;;;;2.58;0.90;;;;;;;24.40;47.63;96846.47;4959854;28;20770;-60
2021/07/11 08:24:25;;;;;;;3.63;1.52;;;;;;;23.21;51.31;96839.28;4956882;28;20407;-61
2021/07/11 08:26:51;;;;;;;2.70;1.08;;;;;;;23.87;49.94;96838.72;4982957;28;20072;-62
2021/07/11 08:29:16;;;;;;;3.47;1.13;;;;;;;23.81;49.73;96840.56;4970756;28;20410;-62
2021/07/11 08:31:42;;;;;;;4.25;1.38;;;;;;;23.66;50.54;96840.22;4981006;28;20540;-64
2021/07/11 08:34:07;;;;;;;3.17;1.15;;;;;;;23.36;51.71;96838.81;4977527;28;20494;-62
2021/07/11 08:36:32;;;;;;;1.45;0.88;;;;;;;24.12;48.93;96835.06;4983575;28;20049;-61
2021/07/11 08:39:02;;;;;;;1.92;1.08;;;;;;;24.25;48.89;96835.00;4976363;28;20109;-62
2021/07/11 08:41:28;;;;;;;3.55;1.00;;;;;;;24.69;49.02;96843.44;4978523;28;20073;-62
2021/07/11 08:43:55;;;;;;;2.40;1.13;;;;;;;24.92;47.40;96844.16;4976797;28;20121;-62
2021/07/11 08:46:21;;;;;;;1.83;1.00;;;;;;;24.59;48.93;96853.78;4973565;28;20125;-63
2021/07/11 08:48:48;;;;;;;2.10;0.90;;;;;;;25.15;48.22;96845.66;4982052;28;20054;-61
2021/07/11 08:51:15;;;;;;;3.17;1.13;;;;;;;25.98;44.83;96836.75;4978602;28;20049;-62
2021/07/11 08:53:40;;;;;;;3.63;1.20;;;;;;;25.71;45.41;96855.06;4982153;28;20057;-62
2021/07/11 08:56:26;;;;;;;1.75;1.05;;;;;;;25.01;47.87;96847.00;4976892;28;20054;-64
2021/07/11 08:58:54;;;;;;;1.98;1.10;;;;;;;25.67;45.78;96846.03;4977276;28;20053;-62
2021/07/11 09:01:21;;;;;;;1.88;1.10;;;;;;;25.28;46.81;96848.41;4975487;28;20042;-62
2021/07/11 09:04:01;;;;;;;3.95;1.25;;;;;;;25.12;46.91;96855.78;4982657;28;20042;-63
2021/07/11 09:06:26;;;;;;;2.17;0.93;;;;;;;24.59;47.77;96853.00;4957802;28;20134;-63
2021/07/11 09:08:58;;;;;;;1.55;0.90;;;;;;;24.83;48.07;96852.53;4976922;28;20547;-62
2021/07/11 09:11:23;;;;;;;1.67;0.88;;;;;;;25.20;46.95;96850.69;4978620;28;20134;-63
2021/07/11 09:13:51;;;;;;;2.63;0.98;;;;;;;24.70;47.42;96844.19;4982699;28;20077;-63
2021/07/11 09:16:17;;;;;;;2.80;1.23;;;;;;;24.61;47.08;96853.31;4958030;28;20046;-61
2021/07/11 09:18:42;;;;;;;2.20;1.10;;;;;;;25.02;45.98;96847.81;4978406;28;20039;-62
2021/07/11 09:21:11;;;;;;;3.50;1.00;;;;;;;24.75;46.90;96850.00;4973566;28;20088;-62
2021/07/11 09:23:38;;;;;;;3.97;1.27;;;;;;;24.79;46.31;96842.25;4982890;28;20042;-64
2021/07/11 09:26:06;;;;;;;2.80;1.00;;;;;;;24.39;48.90;96847.72;4970458;28;20053;-66
2021/07/11 09:28:34;;;;;;;1.52;0.93;;;;;;;24.72;47.74;96841.72;4982412;28;20050;-62
2021/07/11 09:31:07;;;;;;;1.98;0.90;;;;;;;25.06;46.77;96857.63;4974831;28;20070;-64
2021/07/11 09:33:34;;;;;;;10.50;1.10;;;;;;;25.45;43.86;96844.09;4980641;28;20107;-63
2021/07/11 09:36:05;;;;;;;2.13;1.23;;;;;;;24.30;47.07;96845.63;4973525;28;20054;-64
2021/07/11 09:38:31;;;;;;;3.15;1.00;;;;;;;24.18;48.64;96847.25;4970482;28;20047;-64
2021/07/11 09:40:56;;;;;;;1.95;1.27;;;;;;;24.01;50.00;96848.66;4978931;28;20042;-63
2021/07/11 09:43:21;;;;;;;3.55;1.20;;;;;;;24.45;49.91;96848.66;4976558;28;20380;-63
2021/07/11 09:45:47;;;;;;;3.10;1.20;;;;;;;23.96;51.84;96854.81;4981248;28;20112;-64
2021/07/11 09:48:13;;;;;;;8.35;1.00;;;;;;;24.32;51.76;96845.94;4977012;28;20089;-64
2021/07/11 09:50:38;;;;;;;2.80;1.10;;;;;;;23.98;51.66;96852.34;4982379;28;20038;-64
2021/07/11 09:53:06;;;;;;;3.28;1.30;;;;;;;24.41;49.67;96848.81;4977877;28;20042;-65
2021/07/11 09:55:35;;;;;;;3.15;1.30;;;;;;;24.90;48.88;96850.25;4972688;28;20046;-64
2021/07/11 09:58:11;;;;;;;2.28;0.90;;;;;;;25.09;48.22;96839.88;4986320;28;20053;-65
2021/07/11 10:00:41;;;;;;;2.08;0.85;;;;;;;24.63;48.46;96836.84;4988819;28;20499;-64
2021/07/11 10:03:11;;;;;;;2.78;1.17;;;;;;;24.85;48.26;96844.44;4972299;28;20468;-63
2021/07/11 10:05:38;;;;;;;3.97;1.25;;;;;;;25.69;45.48;96829.50;4965613;28;20369;-63
2021/07/11 10:08:04;;;;;;;1.55;1.00;;;;;;;25.80;45.50;96832.63;4971515;28;20491;-65
2021/07/11 10:10:32;;;;;;;2.85;1.15;;;;;;;25.53;46.61;96830.56;4980570;28;20046;-64
2021/07/11 10:12:59;;;;;;;4.47;1.05;;;;;;;24.25;50.79;96832.19;4981597;28;20042;-64
2021/07/11 10:15:27;;;;;;;3.63;1.10;;;;;;;24.69;48.53;96842.66;4976757;28;20047;-62
2021/07/11 10:18:00;;;;;;;2.97;1.25;;;;;;;24.48;49.31;96828.16;4974906;28;20508;-64
2021/07/11 10:20:42;;;;;;;1.92;0.95;;;;;;;24.41;47.37;96828.44;4974202;28;20057;-63
2021/07/11 10:23:09;;;;;;;1.33;1.02;;;;;;;23.89;47.95;96827.88;4976141;28;20398;-64
2021/07/11 10:25:36;;;;;;;6.93;4.60;;;;;;;24.35;48.04;96822.66;4982148;28;20038;-63
2021/07/11 10:28:11;;;;;;;2.33;1.50;;;;;;;25.08;46.94;96823.53;4979065;28;20045;-64
2021/07/11 10:30:43;;;;;;;4.63;1.15;;;;;;;26.02;42.85;96824.13;4982120;28;20038;-64
2021/07/11 10:33:14;;;;;;;3.47;1.20;;;;;;;25.65;45.56;96812.81;4968265;28;20394;-64
2021/07/11 10:35:54;;;;;;;2.38;0.95;;;;;;;25.41;44.82;96812.63;4973893;28;20039;-64
2021/07/11 10:38:25;;;;;;;1.40;0.90;;;;;;;25.04;46.06;96817.28;4976398;28;20042;-63
2021/07/11 10:40:51;;;;;;;2.97;1.40;;;;;;;24.70;47.30;96816.19;4981507;28;20114;-64
2021/07/11 10:43:16;;;;;;;5.22;1.17;;;;;;;24.44;46.62;96810.72;4974293;28;20038;-64
2021/07/11 10:45:46;;;;;;;10.35;6.00;;;;;;;24.47;46.09;96815.44;4981631;28;20038;-63
2021/07/11 10:48:13;;;;;;;2.67;1.23;;;;;;;24.77;45.48;96818.72;4975187;28;20798;-64
2021/07/11 10:50:42;;;;;;;3.00;1.38;;;;;;;24.72;45.89;96814.50;4981179;28;20042;-64
2021/07/11 10:53:17;;;;;;;;;;;;;;;24.23;48.24;96813.06;4975051;28;20594;-64
2021/07/11 10:55:44;;;;;;;3.42;1.40;;;;;;;24.44;48.41;96813.53;4973756;28;19921;-63
2021/07/11 10:58:19;;;;;;;6.05;1.15;;;;;;;24.95;46.19;96818.81;4974461;28;20042;-63
2021/07/11 11:00:46;;;;;;;3.08;1.20;;;;;;;24.95;47.15;96818.03;4968067;28;20157;-62
2021/07/11 11:03:20;;;;;;;2.42;1.23;;;;;;;24.52;47.83;96814.81;4966634;28;20039;-65
2021/07/11 11:05:48;;;;;;;2.15;1.25;;;;;;;24.05;46.44;96824.13;4981260;28;20129;-63
2021/07/11 11:08:16;;;;;;;2.25;1.10;;;;;;;23.88;48.32;96815.13;4974874;28;20046;-65
2021/07/11 11:10:43;;;;;;;2.53;1.30;;;;;;;23.53;48.01;96814.28;4981537;28;20045;-63
2021/07/11 11:13:21;;;;;;;2.33;1.13;;;;;;;24.09;48.69;96813.56;4975100;28;20081;-64
2021/07/11 11:15:55;;;;;;;3.45;1.50;;;;;;;24.19;47.15;96803.25;4971042;28;20046;-63
2021/07/11 11:18:20;;;;;;;2.33;1.17;;;;;;;23.97;47.08;96812.41;4975805;28;20042;-63
2021/07/11 11:20:54;;;;;;;2.88;1.60;;;;;;;24.55;45.73;96807.56;4964162;28;20440;-64
2021/07/11 11:23:20;;;;;;;6.20;1.85;;;;;;;24.80;45.74;96801.78;4975638;28;20042;-65
2021/07/11 11:25:47;;;;;;;2.20;1.00;;;;;;;24.80;44.95;96798.22;4979210;28;20488;-64
2021/07/11 11:28:13;;;;;;;1.65;1.00;;;;;;;24.37;43.70;96797.78;4975824;28;20126;-64
2021/07/11 11:30:40;;;;;;;2.88;0.88;;;;;;;24.63;45.45;96797.63;4979418;28;20042;-63